Time;durP1;ratioP1;P1;durP2;ratioP2;P2;SDS_P1;SDS_P2;PMS_P1;PMS_P2;Temp;Humidity;BMP_temperature;BMP_pressure;BME280_temperature;BME280_humidity;BME280_pressure;Samples;Min_cycle;Max_cycle;Signal;HPM_P1;HPM_P2
2023/10/07 00:01:22;;;;;;;5.90;2.28;;;;;;;;;;5095107;28;20123;-27
2023/10/07 00:03:51;;;;;;;7.85;2.08;;;19.70;86.50;;;;;;5095122;28;20072;-25
2023/10/07 00:06:22;;;;;;;6.18;2.17;;;19.90;69.60;;;;;;5095312;28;20052;-26
2023/10/07 00:08:50;;;;;;;7.18;2.05;;;19.20;86.30;;;;;;5095058;28;20044;-26
2023/10/07 00:11:17;;;;;;;4.45;2.10;;;20.10;85.80;;;;;;5095138;28;20047;-25
2023/10/07 00:13:45;;;;;;;5.65;2.80;;;;;;;;;;5094864;28;20048;-26
2023/10/07 00:16:14;;;;;;;6.55;2.50;;;19.50;86.40;;;;;;5094941;28;20131;-25
2023/10/07 00:18:41;;;;;;;6.18;2.25;;;19.40;86.70;;;;;;5094482;28;20051;-25
2023/10/07 00:21:15;;;;;;;5.55;2.28;;;20.20;87.70;;;;;;5094893;28;20097;-25
2023/10/07 00:23:44;;;;;;;6.50;2.30;;;20.00;77.70;;;;;;5094609;28;20044;-26
2023/10/07 00:26:13;;;;;;;4.53;2.20;;;19.90;87.40;;;;;;5095032;28;20048;-25
2023/10/07 00:28:44;;;;;;;8.02;2.40;;;;;;;;;;5094189;28;20605;-26
2023/10/07 00:31:13;;;;;;;7.00;2.17;;;20.00;86.70;;;;;;5094754;28;20468;-26
2023/10/07 00:33:50;;;;;;;5.40;2.35;;;19.70;87.00;;;;;;5094546;28;20051;-25
2023/10/07 00:36:33;;;;;;;5.50;2.20;;;20.20;71.00;;;;;;5094377;28;20044;-28
2023/10/07 00:39:06;;;;;;;7.35;2.40;;;20.00;69.90;;;;;;5093802;28;20080;-26
2023/10/07 00:41:39;;;;;;;5.65;2.80;;;20.20;81.60;;;;;;5094565;28;20127;-26
2023/10/07 00:44:16;;;;;;;6.15;2.38;;;19.50;86.60;;;;;;5094558;28;20067;-26
2023/10/07 00:46:45;;;;;;;7.13;2.33;;;19.20;75.10;;;;;;5094431;28;20052;-25
2023/10/07 00:49:21;;;;;;;6.07;2.05;;;19.70;79.20;;;;;;5094153;28;20044;-25
2023/10/07 00:51:49;;;;;;;8.02;2.72;;;19.80;70.00;;;;;;5094325;28;20059;-27
2023/10/07 00:54:18;;;;;;;7.18;2.38;;;19.10;87.30;;;;;;5094206;28;20048;-25
2023/10/07 00:56:50;;;;;;;4.95;2.58;;;19.90;82.70;;;;;;5094111;28;20044;-25
2023/10/07 00:59:18;;;;;;;6.53;2.30;;;19.30;86.60;;;;;;5094243;28;20044;-25
2023/10/07 01:01:49;;;;;;;7.32;2.38;;;20.00;86.90;;;;;;5093916;28;20127;-26
2023/10/07 01:04:16;;;;;;;4.38;2.28;;;20.10;87.80;;;;;;5094002;28;20048;-25
2023/10/07 01:06:45;;;;;;;5.32;2.40;;;19.40;76.00;;;;;;5093867;28;20055;-25
2023/10/07 01:09:14;;;;;;;8.10;2.60;;;;;;;;;;5093880;28;20447;-26
2023/10/07 01:11:46;;;;;;;6.47;2.20;;;19.10;82.50;;;;;;5093546;28;20050;-25
2023/10/07 01:14:12;;;;;;;6.32;2.50;;;20.90;87.50;;;;;;5093923;28;20094;-25
2023/10/07 01:16:42;;;;;;;5.78;2.38;;;19.80;87.70;;;;;;5093737;28;20479;-26
2023/10/07 01:21:55;;;;;;;5.03;2.13;;;;;;;;;;5093887;28;20040;-26
2023/10/07 01:24:44;;;;;;;8.20;2.45;;;19.70;69.90;;;;;;5093754;28;20098;-28
2023/10/07 01:27:18;;;;;;;4.25;2.13;;;20.00;80.90;;;;;;5093722;28;20048;-29
2023/10/07 01:29:48;;;;;;;7.50;2.58;;;20.00;87.60;;;;;;5093577;28;20113;-31
2023/10/07 01:32:16;;;;;;;5.18;2.00;;;19.90;74.60;;;;;;5074963;28;20459;-29
2023/10/07 01:34:47;;;;;;;6.22;2.63;;;;;;;;;;5093121;28;20495;-31
2023/10/07 01:37:15;;;;;;;6.00;2.40;;;;;;;;;;5093112;28;20078;-30
2023/10/07 01:39:44;;;;;;;7.00;2.45;;;18.90;87.00;;;;;;5093287;28;20451;-34
2023/10/07 01:42:23;;;;;;;4.32;2.10;;;19.70;80.50;;;;;;5092648;28;20048;-31
2023/10/07 01:44:56;;;;;;;5.93;2.17;;;19.30;86.90;;;;;;5093372;28;20130;-34
2023/10/07 01:47:24;;;;;;;7.55;2.55;;;18.70;86.70;;;;;;5093422;28;20052;-30
2023/10/07 01:49:54;;;;;;;5.50;2.50;;;;;;;;;;5093154;28;20056;-29
2023/10/07 01:52:24;;;;;;;6.20;2.50;;;19.50;87.00;;;;;;5091832;28;20082;-31
2023/10/07 01:54:53;;;;;;;7.40;2.55;;;19.70;70.20;;;;;;5093013;28;20047;-27
2023/10/07 01:57:20;;;;;;;5.38;2.33;;;;;;;;;;5093254;28;20048;-30
2023/10/07 01:59:47;;;;;;;5.55;2.28;;;;;;;;;;5092854;28;20556;-30
2023/10/07 02:02:15;;;;;;;7.18;2.55;;;19.60;87.50;;;;;;5093013;28;20076;-29
2023/10/07 02:04:42;;;;;;;6.88;2.40;;;19.80;87.20;;;;;;5092771;28;20474;-29
2023/10/07 02:07:09;;;;;;;4.43;2.20;;;20.80;87.90;;;;;;5092463;28;20093;-31
2023/10/07 02:09:40;;;;;;;7.60;2.25;;;18.90;81.40;;;;;;5092999;28;20044;-32
2023/10/07 02:12:09;;;;;;;5.88;2.40;;;18.80;87.20;;;;;;5092925;28;20597;-31
2023/10/07 02:14:36;;;;;;;6.93;2.80;;;;;;;;;;5092566;28;20048;-29
2023/10/07 02:17:03;;;;;;;6.10;2.30;;;18.80;87.30;;;;;;5092671;28;20474;-29
2023/10/07 02:19:31;;;;;;;5.18;2.15;;;;;;;;;;5092384;28;20410;-30
2023/10/07 02:22:00;;;;;;;5.70;2.33;;;19.80;86.10;;;;;;5092887;28;20060;-30
2023/10/07 02:24:29;;;;;;;5.40;2.30;;;19.40;88.00;;;;;;5084976;28;20052;-32
2023/10/07 02:26:59;;;;;;;5.43;2.30;;;20.00;70.60;;;;;;5092795;28;20052;-28
2023/10/07 02:29:28;;;;;;;6.43;2.10;;;19.70;70.40;;;;;;5092240;28;20052;-29
2023/10/07 02:32:05;;;;;;;5.60;2.65;;;20.30;88.60;;;;;;5092529;28;20131;-32
2023/10/07 02:34:33;;;;;;;5.07;2.33;;;;;;;;;;5092534;28;20135;-30
2023/10/07 02:37:12;;;;;;;4.93;2.38;;;19.70;70.40;;;;;;5091809;28;20056;-31
2023/10/07 02:39:46;;;;;;;5.43;2.30;;;18.80;86.80;;;;;;5092242;28;20044;-29
2023/10/07 02:42:20;;;;;;;3.83;2.17;;;20.50;80.10;;;;;;5091951;28;20058;-32
2023/10/07 02:44:51;;;;;;;9.23;2.40;;;20.40;88.20;;;;;;5092469;28;20101;-29
2023/10/07 02:47:18;;;;;;;4.47;2.40;;;20.20;88.50;;;;;;5092161;28;20310;-32
2023/10/07 02:49:49;;;;;;;5.40;2.30;;;19.90;70.50;;;;;;5092310;28;20043;-32
2023/10/07 02:52:19;;;;;;;5.28;2.20;;;19.40;87.20;;;;;;5091935;28;20044;-34
2023/10/07 02:55:05;;;;;;;6.68;2.40;;;;;;;;;;5091999;28;20044;-32
2023/10/07 02:57:39;;;;;;;4.32;2.22;;;;;;;;;;5091976;28;20153;-34
2023/10/07 03:00:28;;;;;;;3.67;2.10;;;18.60;87.20;;;;;;5091989;28;20044;-34
2023/10/07 03:03:18;;;;;;;5.47;2.53;;;;;;;;;;5091593;28;20052;-30
2023/10/07 03:05:45;;;;;;;4.18;2.30;;;19.40;87.60;;;;;;5091710;28;20503;-32
2023/10/07 03:08:19;;;;;;;5.35;2.45;;;;;;;;;;5092041;28;20106;-29
2023/10/07 03:10:54;;;;;;;6.07;2.67;;;19.40;87.30;;;;;;5091936;28;20131;-31
2023/10/07 03:13:23;;;;;;;5.15;2.20;;;20.00;75.10;;;;;;5091452;28;20127;-30
2023/10/07 03:16:09;;;;;;;6.45;2.10;;;19.60;70.50;;;;;;5091436;28;20090;-28
2023/10/07 03:18:38;;;;;;;6.78;2.03;;;19.50;87.90;;;;;;5091721;28;20055;-32
2023/10/07 03:21:10;;;;;;;3.63;2.10;;;20.30;88.00;;;;;;5091766;28;20059;-33
2023/10/07 03:23:45;;;;;;;4.95;2.10;;;20.40;75.40;;;;;;5091666;28;20052;-32
2023/10/07 03:26:12;;;;;;;6.25;2.25;;;20.00;86.20;;;;;;5091514;28;20048;-32
2023/10/07 03:28:48;;;;;;;5.43;2.40;;;19.70;88.50;;;;;;5091974;28;20454;-31
2023/10/07 03:31:19;;;;;;;6.20;2.42;;;19.50;87.60;;;;;;5091373;28;20070;-32
2023/10/07 03:33:48;;;;;;;5.63;2.08;;;19.70;87.80;;;;;;5091661;28;20051;-31
2023/10/07 03:36:40;;;;;;;5.20;1.98;;;19.40;87.60;;;;;;5091009;28;20085;-34
2023/10/07 03:39:22;;;;;;;3.17;1.98;;;19.60;88.50;;;;;;5091808;28;20080;-24
2023/10/07 03:41:52;;;;;;;4.07;2.20;;;19.80;83.10;;;;;;5091367;28;20044;-24
2023/10/07 03:44:19;;;;;;;5.05;2.10;;;19.30;72.50;;;;;;5091457;28;20048;-26
2023/10/07 03:46:48;;;;;;;5.88;2.45;;;19.60;87.70;;;;;;5091219;28;20533;-24
2023/10/07 03:49:15;;;;;;;4.45;1.98;;;19.80;73.40;;;;;;5091690;28;20044;-25
2023/10/07 03:51:41;;;;;;;4.75;2.20;;;19.90;87.70;;;;;;5091470;28;20075;-25
2023/10/07 03:54:11;;;;;;;7.60;2.78;;;;;;;;;;5091432;28;20493;-26
2023/10/07 03:56:38;;;;;;;4.43;1.98;;;19.30;87.60;;;;;;5091574;28;20067;-25
2023/10/07 03:59:05;;;;;;;5.03;2.20;;;19.60;77.20;;;;;;5091332;28;20139;-26
2023/10/07 04:01:33;;;;;;;4.32;2.20;;;19.80;88.60;;;;;;5091485;28;20421;-25
2023/10/07 04:04:01;;;;;;;5.10;2.13;;;19.10;77.70;;;;;;5090127;28;20135;-25
2023/10/07 04:06:31;;;;;;;5.38;2.28;;;20.20;81.70;;;;;;5091572;28;20127;-25
2023/10/07 04:09:05;;;;;;;4.60;1.95;;;20.10;88.00;;;;;;5091160;28;20071;-25
2023/10/07 04:11:33;;;;;;;6.22;2.75;;;19.50;87.70;;;;;;5090928;28;20055;-25
2023/10/07 04:14:06;;;;;;;4.82;2.28;;;20.10;71.30;;;;;;5089666;28;20451;-29
2023/10/07 04:16:34;;;;;;;5.13;2.10;;;;;;;;;;5092880;28;20055;-30
2023/10/07 04:19:09;;;;;;;4.68;2.20;;;19.40;79.60;;;;;;5092734;28;20044;-34
2023/10/07 04:21:39;;;;;;;4.30;2.20;;;;;;;;;;5092721;28;20040;-30
2023/10/07 04:24:09;;;;;;;7.18;3.33;;;19.60;70.60;;;;;;5092766;28;20501;-28
2023/10/07 04:26:39;;;;;;;5.15;2.08;;;18.50;77.00;;;;;;5092938;28;20123;-29
2023/10/07 04:29:08;;;;;;;5.68;2.33;;;;;;;;;;5094045;28;20509;-28
2023/10/07 04:31:37;;;;;;;6.78;2.53;;;19.50;88.10;;;;;;5094942;28;20105;-33
2023/10/07 04:34:11;;;;;;;4.07;2.30;;;19.70;80.90;;;;;;5094558;28;20056;-28
2023/10/07 04:37:01;;;;;;;4.20;1.85;;;19.20;82.00;;;;;;5093892;28;20134;-31
2023/10/07 04:39:28;;;;;;;6.40;2.08;;;;;;;;;;5094167;28;20091;-29
2023/10/07 04:41:56;;;;;;;4.60;2.35;;;19.30;87.80;;;;;;5094358;28;20524;-32
2023/10/07 04:45:00;;;;;;;6.35;2.42;;;20.30;88.30;;;;;;5094504;28;20044;-35
2023/10/07 04:47:20;;;;;;;3.53;1.90;;;;;;;;;;5094073;28;20452;-29
2023/10/07 04:49:56;;;;;;;4.30;2.20;;;19.90;88.20;;;;;;5094258;28;20048;-33
2023/10/07 04:52:28;;;;;;;5.93;2.40;;;19.40;87.90;;;;;;5093934;28;20105;-31
2023/10/07 04:54:58;;;;;;;4.45;2.10;;;19.20;88.60;;;;;;5093695;28;20052;-33
2023/10/07 04:57:42;;;;;;;4.65;2.30;;;19.30;83.20;;;;;;5093978;28;20546;-33
2023/10/07 05:00:27;;;;;;;4.43;2.37;;;19.70;88.00;;;;;;5094051;28;20044;-24
2023/10/07 05:02:57;;;;;;;4.70;2.00;;;18.70;87.50;;;;;;5093766;28;20441;-25
2023/10/07 05:05:28;;;;;;;5.20;1.98;;;19.60;88.20;;;;;;5094473;28;20044;-25
2023/10/07 05:07:56;;;;;;;4.15;2.17;;;18.80;73.10;;;;;;5093511;28;20508;-26
2023/10/07 05:10:28;;;;;;;5.65;2.55;;;19.60;70.90;;;;;;5093781;28;20484;-26
2023/10/07 05:12:55;;;;;;;4.32;2.00;;;;;;;;;;5094003;28;20048;-25
2023/10/07 05:15:24;;;;;;;4.28;2.00;;;19.90;88.60;;;;;;5094074;28;20040;-24
2023/10/07 05:17:52;;;;;;;3.50;1.85;;;;;;;;;;5093804;28;20047;-26
2023/10/07 05:20:27;;;;;;;4.95;1.90;;;;;;;;;;5093233;28;20044;-27
2023/10/07 05:22:55;;;;;;;4.28;2.22;;;19.40;87.90;;;;;;5092693;28;20044;-25
2023/10/07 05:25:21;;;;;;;6.05;2.25;;;19.90;75.50;;;;;;5093551;28;20454;-26
2023/10/07 05:27:50;;;;;;;5.15;2.22;;;;;;;;;;5093707;28;20074;-25
2023/10/07 05:30:18;;;;;;;5.40;2.33;;;19.10;88.60;;;;;;5093534;28;20492;-24
2023/10/07 05:32:46;;;;;;;3.78;2.03;;;19.60;70.90;;;;;;5093371;28;20058;-25
2023/10/07 05:35:15;;;;;;;4.93;2.10;;;20.30;89.20;;;;;;5093533;28;20416;-25
2023/10/07 05:37:44;;;;;;;5.60;1.98;;;19.80;88.50;;;;;;5092422;28;20130;-25
2023/10/07 05:40:16;;;;;;;5.10;2.15;;;19.50;88.00;;;;;;5093080;28;20048;-24
2023/10/07 05:42:43;;;;;;;4.45;2.13;;;19.30;76.40;;;;;;5093357;28;20154;-24
2023/10/07 05:45:12;;;;;;;8.90;2.47;;;18.60;73.60;;;;;;5093308;28;20130;-27
2023/10/07 05:47:39;;;;;;;3.47;1.80;;;;;;;;;;5093079;28;20048;-25
2023/10/07 05:50:08;;;;;;;4.65;2.00;;;18.90;87.80;;;;;;5093381;28;20120;-25
2023/10/07 05:52:35;;;;;;;5.47;2.30;;;;;;;;;;5092987;28;20483;-23
2023/10/07 05:55:03;;;;;;;5.05;2.10;;;;;;;;;;5092989;28;20461;-29
2023/10/07 05:57:31;;;;;;;4.80;2.22;;;19.80;89.10;;;;;;5093241;28;20044;-26
2023/10/07 05:59:58;;;;;;;3.92;2.20;;;19.80;88.70;;;;;;5092692;28;20130;-25
2023/10/07 06:02:26;;;;;;;4.45;2.05;;;19.10;88.40;;;;;;5092516;28;20131;-25
2023/10/07 06:04:53;;;;;;;4.70;2.10;;;;;;;;;;5092757;28;20101;-26
2023/10/07 06:07:21;;;;;;;4.43;2.15;;;20.00;88.50;;;;;;5092819;28;20576;-26
2023/10/07 06:09:48;;;;;;;5.20;2.10;;;19.90;88.30;;;;;;5092567;28;20048;-26
2023/10/07 06:12:15;;;;;;;3.72;2.10;;;20.00;78.70;;;;;;5092532;28;20048;-26
2023/10/07 06:14:44;;;;;;;3.53;2.17;;;19.80;89.30;;;;;;5092581;28;20192;-26
2023/10/07 06:17:11;;;;;;;4.78;2.08;;;19.20;88.50;;;;;;5092543;28;20130;-25
2023/10/07 06:19:40;;;;;;;5.90;2.00;;;19.40;88.20;;;;;;5092820;28;20056;-25
2023/10/07 06:22:11;;;;;;;3.47;1.95;;;19.20;88.20;;;;;;5092920;28;20603;-25
2023/10/07 06:24:41;;;;;;;4.20;1.80;;;18.70;70.80;;;;;;5092459;28;20523;-25
2023/10/07 06:27:11;;;;;;;4.88;2.30;;;19.80;88.50;;;;;;5092862;28;20048;-25
2023/10/07 06:29:43;;;;;;;4.13;2.00;;;20.20;89.50;;;;;;5092242;28;20063;-25
2023/10/07 06:32:22;;;;;;;4.63;2.05;;;18.80;80.90;;;;;;5090153;28;20039;-26
2023/10/07 06:34:51;;;;;;;6.10;2.20;;;19.00;88.20;;;;;;5089845;28;20087;-26
2023/10/07 06:37:25;;;;;;;4.93;2.15;;;19.40;89.10;;;;;;5091085;28;20047;-26
2023/10/07 06:39:52;;;;;;;5.30;2.10;;;19.00;82.00;;;;;;5089907;28;20071;-26
2023/10/07 06:42:24;;;;;;;4.75;2.20;;;19.70;79.40;;;;;;5091742;28;20123;-29
2023/10/07 06:44:52;;;;;;;4.97;2.10;;;19.40;89.40;;;;;;5092062;28;20131;-34
2023/10/07 06:47:21;;;;;;;5.30;2.22;;;19.20;88.80;;;;;;5091804;28;20462;-33
2023/10/07 06:49:48;;;;;;;4.40;2.00;;;;;;;;;;5091752;28;20124;-27
2023/10/07 06:52:16;;;;;;;3.70;2.00;;;20.00;89.20;;;;;;5091900;28;20079;-32
2023/10/07 06:54:42;;;;;;;4.53;2.17;;;18.50;86.60;;;;;;5091102;28;20051;-32
2023/10/07 06:57:10;;;;;;;4.88;2.28;;;20.40;89.50;;;;;;5091775;28;20143;-31
2023/10/07 06:59:40;;;;;;;5.43;2.38;;;19.30;81.30;;;;;;5091580;28;20048;-32
2023/10/07 07:02:10;;;;;;;6.93;2.47;;;;;;;;;;5091884;28;20062;-35
2023/10/07 07:04:41;;;;;;;5.95;2.33;;;18.60;88.20;;;;;;5092009;28;20057;-30
2023/10/07 07:07:11;;;;;;;4.00;2.38;;;20.70;89.40;;;;;;5092151;28;20126;-36
2023/10/07 07:09:43;;;;;;;5.25;2.30;;;19.80;88.90;;;;;;5092240;28;20079;-34
2023/10/07 07:12:11;;;;;;;5.90;2.17;;;19.30;88.70;;;;;;5091987;28;20044;-31
2023/10/07 07:14:41;;;;;;;4.72;2.28;;;19.80;88.90;;;;;;5091870;28;20085;-32
2023/10/07 07:20:32;;;;;;;5.47;2.28;;;20.60;89.50;;;;;;5090962;28;20072;-24
2023/10/07 07:22:39;;;;;;;5.10;2.28;;;20.50;87.20;;;;;;5091447;28;20052;-24
2023/10/07 07:25:10;;;;;;;3.97;2.75;;;19.40;80.10;;;;;;5091644;28;20489;-25
2023/10/07 07:27:37;;;;;;;5.80;2.20;;;;;;;;;;5091780;28;20512;-25
2023/10/07 07:30:04;;;;;;;3.80;1.92;;;19.70;89.30;;;;;;5091812;28;20102;-24
2023/10/07 07:32:33;;;;;;;7.72;2.60;;;19.70;88.90;;;;;;5091575;28;20040;-24
2023/10/07 07:35:02;;;;;;;8.15;2.58;;;19.30;88.60;;;;;;5091749;28;20070;-23
2023/10/07 07:37:31;;;;;;;4.05;2.15;;;;;;;;;;5091129;28;20052;-28
2023/10/07 07:39:59;;;;;;;5.80;2.55;;;19.60;89.60;;;;;;5091799;28;20044;-26
2023/10/07 07:42:27;;;;;;;4.03;2.40;;;19.40;76.40;;;;;;5091708;28;20109;-26
2023/10/07 07:44:57;;;;;;;6.93;2.60;;;19.10;88.80;;;;;;5091389;28;20052;-25
2023/10/07 07:47:24;;;;;;;5.47;2.30;;;;;;;;;;5091698;28;20052;-28
2023/10/07 07:49:51;;;;;;;6.18;2.55;;;19.20;88.60;;;;;;5093194;28;20119;-35
2023/10/07 07:52:19;;;;;;;5.82;2.30;;;19.10;75.90;;;;;;5095764;28;20382;-31
2023/10/07 07:54:46;;;;;;;5.28;2.22;;;20.50;78.70;;;;;;5095365;28;20052;-30
2023/10/07 07:57:16;;;;;;;4.90;2.35;;;18.70;86.70;;;;;;5095557;28;20127;-31
2023/10/07 07:59:43;;;;;;;4.25;2.53;;;20.10;90.00;;;;;;5100213;28;20052;-24
2023/10/07 08:02:13;;;;;;;5.70;2.65;;;18.70;83.60;;;;;;5094876;28;20070;-24
2023/10/07 08:04:43;;;;;;;5.63;2.38;;;19.50;71.60;;;;;;5095062;28;20095;-25
2023/10/07 08:07:18;;;;;;;7.40;2.63;;;19.20;88.90;;;;;;5095084;28;20058;-25
2023/10/07 08:09:50;;;;;;;6.28;2.50;;;19.70;89.00;;;;;;5095270;28;20131;-32
2023/10/07 08:12:19;;;;;;;7.75;2.42;;;19.40;89.60;;;;;;5094545;28;20052;-30
2023/10/07 08:14:47;;;;;;;5.30;2.22;;;19.70;89.70;;;;;;5092309;28;20051;-33
2023/10/07 08:17:19;;;;;;;3.38;1.90;;;19.60;89.10;;;;;;5094894;28;20040;-32
2023/10/07 08:19:49;;;;;;;3.53;2.33;;;19.60;88.70;;;;;;5094285;28;20439;-33
2023/10/07 08:22:18;;;;;;;4.03;1.98;;;19.10;89.20;;;;;;5093965;28;20055;-31
2023/10/07 08:24:46;;;;;;;4.20;2.20;;;19.80;88.80;;;;;;5094478;28;20048;-32
2023/10/07 08:29:56;;;;;;;6.28;2.35;;;20.40;88.90;;;;;;5093926;28;20044;-26
2023/10/07 08:32:35;;;;;;;5.10;2.00;;;19.70;79.70;;;;;;5094593;28;20540;-26
2023/10/07 08:35:02;;;;;;;8.45;2.33;;;20.40;83.30;;;;;;5094972;28;20130;-25
2023/10/07 08:37:32;;;;;;;7.43;2.38;;;19.50;77.40;;;;;;5094382;28;20051;-26
2023/10/07 08:40:09;;;;;;;7.88;2.30;;;19.70;70.90;;;;;;5094323;28;20062;-27
2023/10/07 08:42:36;;;;;;;4.50;2.20;;;;;;;;;;5094556;28;20044;-26
2023/10/07 08:45:14;;;;;;;5.40;2.20;;;;;;;;;;5094645;28;20131;-26
2023/10/07 08:47:49;;;;;;;8.90;2.22;;;18.80;87.90;;;;;;5094882;28;20048;-26
2023/10/07 08:50:19;;;;;;;4.75;2.60;;;20.80;86.70;;;;;;5093276;28;20044;-30
2023/10/07 08:52:46;;;;;;;7.65;2.33;;;;;;;;;;5093758;28;20044;-27
2023/10/07 08:55:14;;;;;;;6.75;2.20;;;19.40;88.10;;;;;;5092312;28;20131;-33
2023/10/07 08:57:46;;;;;;;8.07;2.40;;;19.50;87.80;;;;;;5093959;28;20074;-32
2023/10/07 09:00:20;;;;;;;10.02;2.75;;;19.60;87.80;;;;;;5090771;28;20496;-31
2023/10/07 09:02:47;;;;;;;7.57;2.70;;;20.10;88.50;;;;;;5093767;28;20138;-32
2023/10/07 09:05:20;;;;;;;5.80;2.45;;;;;;;;;;5093731;28;20040;-26
2023/10/07 09:07:49;;;;;;;4.45;2.13;;;20.20;88.50;;;;;;5093622;28;20052;-24
2023/10/07 09:10:17;;;;;;;6.32;2.70;;;19.80;70.90;;;;;;5093879;28;20062;-24
2023/10/07 09:12:48;;;;;;;6.65;2.80;;;19.80;70.90;;;;;;5093654;28;20051;-27
2023/10/07 09:15:25;;;;;;;6.30;2.50;;;19.80;70.90;;;;;;5091345;28;20048;-24
2023/10/07 09:17:52;;;;;;;6.00;2.20;;;;;;;;;;5091056;28;20070;-27
2023/10/07 09:20:29;;;;;;;7.07;2.85;;;19.70;88.60;;;;;;5093587;28;20133;-24
2023/10/07 09:23:00;;;;;;;9.85;2.85;;;20.00;88.10;;;;;;5091267;28;20043;-24
2023/10/07 09:25:32;;;;;;;8.13;2.67;;;19.40;88.60;;;;;;5092823;28;20051;-24
2023/10/07 09:27:59;;;;;;;8.38;2.63;;;19.80;70.90;;;;;;5093454;28;20062;-27
2023/10/07 09:30:44;;;;;;;6.68;2.83;;;19.50;70.70;;;;;;5093717;28;20126;-25
2023/10/07 09:33:13;;;;;;;6.93;2.40;;;19.80;85.70;;;;;;5073544;28;20052;-24
2023/10/07 09:35:42;;;;;;;5.93;2.53;;;20.40;88.70;;;;;;5073649;28;20044;-24
2023/10/07 09:38:12;;;;;;;9.50;2.78;;;;;;;;;;5092108;28;20481;-24
2023/10/07 09:43:27;;;;;;;7.43;2.83;;;19.50;87.70;;;;;;5093215;28;20496;-24
2023/10/07 09:45:53;;;;;;;7.13;2.60;;;20.50;87.50;;;;;;5093571;28;20048;-25
2023/10/07 09:48:23;;;;;;;6.05;2.83;;;19.10;77.70;;;;;;5093583;28;20043;-26
2023/10/07 09:50:55;;;;;;;8.55;3.17;;;19.80;88.00;;;;;;5093333;28;20044;-25
2023/10/07 09:53:42;;;;;;;14.68;3.45;;;20.00;88.00;;;;;;5093004;28;20047;-26
2023/10/07 09:56:21;;;;;;;8.43;2.95;;;20.70;88.30;;;;;;5091390;28;20127;-25
2023/10/07 09:59:00;;;;;;;6.55;2.88;;;19.80;70.40;;;;;;5093364;28;20048;-27
2023/10/07 10:01:32;;;;;;;8.07;2.85;;;20.40;88.40;;;;;;5093273;28;20044;-29
2023/10/07 10:04:13;;;;;;;12.98;3.10;;;20.30;87.80;;;;;;5092226;28;20504;-32
2023/10/07 10:06:49;;;;;;;8.85;2.90;;;19.90;70.20;;;;;;5093358;28;20404;-29
2023/10/07 10:09:24;;;;;;;7.03;3.00;;;19.90;70.10;;;;;;5093065;28;20097;-30
2023/10/07 10:12:18;;;;;;;9.18;2.83;;;19.80;87.20;;;;;;5091907;28;20119;-31
2023/10/07 10:14:57;;;;;;;7.40;2.85;;;19.40;87.00;;;;;;5091415;28;20553;-31
2023/10/07 10:17:32;;;;;;;8.13;2.78;;;19.90;70.10;;;;;;5092522;28;20047;-31
2023/10/07 10:20:09;;;;;;;8.35;2.72;;;19.60;83.10;;;;;;5089491;28;20612;-30
2023/10/07 10:22:37;;;;;;;5.97;2.75;;;;;;;;;;5092341;28;20046;-29
2023/10/07 10:25:14;;;;;;;9.00;3.25;;;19.90;70.20;;;;;;5089353;28;20052;-27
2023/10/07 10:27:44;;;;;;;9.02;3.30;;;20.80;84.70;;;;;;5090022;28;20048;-29
2023/10/07 10:30:21;;;;;;;9.23;2.95;;;19.40;84.90;;;;;;5092555;28;20134;-30
2023/10/07 10:32:50;;;;;;;11.60;2.97;;;20.60;77.40;;;;;;5092548;28;20040;-24
2023/10/07 10:35:23;;;;;;;6.82;2.58;;;19.80;80.40;;;;;;5091569;28;20119;-24
2023/10/07 10:37:55;;;;;;;7.82;2.83;;;19.70;87.40;;;;;;5092351;28;20052;-24
2023/10/07 10:40:23;;;;;;;7.57;2.85;;;20.90;88.10;;;;;;5092733;28;20059;-25
2023/10/07 10:42:51;;;;;;;6.55;3.25;;;19.40;87.30;;;;;;5092390;28;20147;-32
2023/10/07 10:45:21;;;;;;;7.28;2.83;;;19.50;88.10;;;;;;5092243;28;20127;-29
2023/10/07 10:47:50;;;;;;;6.45;2.78;;;19.70;88.20;;;;;;5092302;28;20135;-32
2023/10/07 10:50:19;;;;;;;6.47;3.22;;;;;;;;;;5092268;28;20087;-29
2023/10/07 10:52:48;;;;;;;8.95;3.20;;;19.60;87.20;;;;;;5092161;28;20048;-24
2023/10/07 10:55:15;;;;;;;8.65;2.83;;;19.60;87.60;;;;;;5092349;28;20054;-24
2023/10/07 10:57:42;;;;;;;6.20;2.75;;;;;;;;;;5091734;28;20127;-25
2023/10/07 11:00:19;;;;;;;6.55;3.35;;;20.10;87.90;;;;;;5092050;28;20139;-24
2023/10/07 11:02:46;;;;;;;9.55;3.22;;;19.90;86.70;;;;;;5089488;28;20047;-25
2023/10/07 11:05:13;;;;;;;6.20;2.63;;;19.60;87.50;;;;;;5091304;28;20123;-23
2023/10/07 11:07:40;;;;;;;7.45;2.88;;;20.50;71.40;;;;;;5091630;28;20044;-25
2023/10/07 11:10:08;;;;;;;8.82;3.05;;;20.80;87.90;;;;;;5091309;28;20116;-25
2023/10/07 11:12:36;;;;;;;4.78;2.38;;;19.90;86.90;;;;;;5091549;28;20036;-25
2023/10/07 11:15:06;;;;;;;8.57;3.42;;;19.30;87.40;;;;;;5090650;28;20059;-25
2023/10/07 11:17:41;;;;;;;14.25;5.07;;;20.00;87.30;;;;;;5091872;28;20105;-24
2023/10/07 11:20:11;;;;;;;16.23;5.90;;;19.90;75.80;;;;;;5088893;28;20049;-25
2023/10/07 11:22:38;;;;;;;72.13;16.40;;;;;;;;;;5091621;28;20123;-27
2023/10/07 11:25:12;;;;;;;81.88;18.52;;;20.30;87.00;;;;;;5098010;28;20080;-24
2023/10/07 11:27:40;;;;;;;100.37;21.40;;;19.60;87.00;;;;;;5094764;28;20119;-24
2023/10/07 11:30:11;;;;;;;108.20;21.95;;;19.70;86.30;;;;;;5098339;28;20054;-24
2023/10/07 11:32:39;;;;;;;90.72;21.23;;;19.90;69.90;;;;;;5095592;28;20075;-27
2023/10/07 11:35:16;;;;;;;98.03;21.60;;;19.90;69.80;;;;;;5097747;28;20073;-27
2023/10/07 11:37:49;;;;;;;88.63;21.20;;;19.70;74.30;;;;;;5097936;28;20449;-29
2023/10/07 11:40:16;;;;;;;89.30;20.13;;;20.30;87.10;;;;;;5102581;28;20066;-32
2023/10/07 11:42:43;;;;;;;92.32;21.38;;;;;;;;;;5107569;28;20126;-29
2023/10/07 11:45:11;;;;;;;80.15;17.83;;;20.70;87.30;;;;;;5106813;28;20071;-28
2023/10/07 11:47:41;;;;;;;82.22;19.10;;;19.70;86.70;;;;;;5107793;28;20508;-30
2023/10/07 11:50:09;;;;;;;82.47;19.90;;;;;;;;;;5109271;28;20476;-31
2023/10/07 11:52:37;;;;;;;76.30;19.98;;;19.20;86.30;;;;;;5106251;28;20131;-31
2023/10/07 11:55:07;;;;;;;76.32;17.85;;;19.90;86.70;;;;;;5108894;28;20074;-32
2023/10/07 11:57:34;;;;;;;87.75;19.38;;;;;;;;;;5105293;28;20047;-30
2023/10/07 12:00:03;;;;;;;74.00;16.73;;;;;;;;;;5107604;28;20043;-28
2023/10/07 12:02:30;;;;;;;70.55;18.15;;;19.20;82.40;;;;;;5109225;28;20410;-26
2023/10/07 12:04:59;;;;;;;73.00;18.98;;;19.90;69.50;;;;;;5106224;28;20123;-26
2023/10/07 12:07:29;;;;;;;61.75;16.33;;;20.10;73.10;;;;;;5097580;28;20449;-26
2023/10/07 12:09:56;;;;;;;58.20;14.45;;;19.50;86.70;;;;;;5098255;28;20040;-26
2023/10/07 12:12:23;;;;;;;60.10;15.32;;;20.00;86.70;;;;;;5098011;28;20482;-25
2023/10/07 12:14:50;;;;;;;58.42;15.23;;;;;;;;;;5097914;28;20135;-30
2023/10/07 12:17:17;;;;;;;57.65;14.75;;;19.20;87.20;;;;;;5098146;28;20131;-33
2023/10/07 12:19:44;;;;;;;56.05;14.20;;;;;;;;;;5098130;28;20048;-31
2023/10/07 12:22:13;;;;;;;55.85;14.52;;;19.10;86.20;;;;;;5098229;28;20131;-33
2023/10/07 12:24:41;;;;;;;54.45;15.10;;;19.50;86.40;;;;;;5097703;28;20044;-24
2023/10/07 12:27:10;;;;;;;61.92;14.32;;;20.10;79.20;;;;;;5097961;28;20044;-24
2023/10/07 12:29:38;;;;;;;52.13;13.05;;;20.60;86.90;;;;;;5098137;28;20048;-24
2023/10/07 12:32:05;;;;;;;50.03;12.25;;;19.30;87.20;;;;;;5097754;28;20040;-24
2023/10/07 12:34:32;;;;;;;41.08;11.77;;;;;;;;;;5096222;28;20123;-29
2023/10/07 12:36:59;;;;;;;44.78;12.18;;;19.30;85.70;;;;;;5094233;28;20132;-35
2023/10/07 12:39:30;;;;;;;29.90;8.90;;;20.00;69.50;;;;;;5093323;28;20047;-32
2023/10/07 12:41:57;;;;;;;28.60;8.80;;;19.90;76.90;;;;;;5093045;28;20135;-35
2023/10/07 12:44:24;;;;;;;31.45;9.32;;;19.10;85.80;;;;;;5093736;28;20044;-32
2023/10/07 12:46:51;;;;;;;31.63;9.23;;;;;;;;;;5093681;28;20126;-29
2023/10/07 12:49:17;;;;;;;36.42;9.45;;;19.80;79.00;;;;;;5093679;28;20131;-30
2023/10/07 12:51:46;;;;;;;30.55;9.35;;;20.10;86.70;;;;;;5093833;28;20135;-29
2023/10/07 12:54:13;;;;;;;28.42;8.43;;;;;;;;;;5093966;28;20143;-32
2023/10/07 12:56:43;;;;;;;26.42;7.57;;;20.00;75.30;;;;;;5094552;28;20580;-31
2023/10/07 12:59:18;;;;;;;25.02;8.50;;;21.00;87.10;;;;;;5093867;28;20047;-30
2023/10/07 13:01:48;;;;;;;25.55;8.48;;;20.00;76.90;;;;;;5094589;28;20048;-32
2023/10/07 13:04:15;;;;;;;26.33;8.48;;;21.10;86.70;;;;;;5093983;28;20131;-32
2023/10/07 13:06:42;;;;;;;22.63;7.82;;;20.00;76.70;;;;;;5094327;28;20131;-32
2023/10/07 13:09:16;;;;;;;25.63;7.55;;;19.70;68.90;;;;;;5094194;28;20055;-30
2023/10/07 13:11:44;;;;;;;28.17;8.30;;;20.60;86.20;;;;;;5094195;28;20055;-33
2023/10/07 13:14:12;;;;;;;21.38;7.90;;;;;;;;;;5093569;28;20564;-27
2023/10/07 13:16:40;;;;;;;26.42;8.20;;;;;;;;;;5093889;28;20491;-34
2023/10/07 13:19:07;;;;;;;21.02;7.22;;;;;;;;;;5093920;28;20527;-31
2023/10/07 13:21:34;;;;;;;27.60;7.32;;;;;;;;;;5094052;28;20147;-27
2023/10/07 13:24:01;;;;;;;25.90;7.22;;;20.00;86.60;;;;;;5093727;28;20059;-30
2023/10/07 13:26:30;;;;;;;23.70;7.28;;;;;;;;;;5093783;28;20127;-29
2023/10/07 13:28:59;;;;;;;24.55;7.22;;;20.20;86.70;;;;;;5093911;28;20048;-24
2023/10/07 13:31:27;;;;;;;21.25;7.05;;;19.30;85.50;;;;;;5093324;28;20057;-24